Time;durP1;ratioP1;P1;durP2;ratioP2;P2;SDS_P1;SDS_P2;PMS_P1;PMS_P2;Temp;Humidity;BMP_temperature;BMP_pressure;BME280_temperature;BME280_humidity;BME280_pressure;Samples;Min_cycle;Max_cycle;Signal;HPM_P1;HPM_P2
2022/08/25 00:02:01;;;;;;;2.75;2.05;;;19.40;99.90;;;19.30;87.46;97337.94;5020639;28;20056;-49
2022/08/25 00:04:28;;;;;;;2.55;1.95;;;19.30;99.90;;;19.24;87.66;97334.75;5016630;28;20064;-47
2022/08/25 00:06:54;;;;;;;3.45;2.00;;;19.30;99.90;;;19.18;87.77;97337.84;5018111;28;20030;-47
2022/08/25 00:09:26;;;;;;;2.50;1.83;;;19.20;99.90;;;19.13;87.85;97333.81;5017659;28;20029;-47
2022/08/25 00:11:52;;;;;;;3.28;2.08;;;19.10;99.90;;;19.07;88.34;97335.13;5020128;28;20033;-48
2022/08/25 00:14:25;;;;;;;3.35;2.10;;;19.10;99.90;;;18.98;88.77;97325.09;5017829;28;20029;-50
2022/08/25 00:16:50;;;;;;;2.08;1.88;;;19.00;99.90;;;18.95;89.37;97319.97;5000979;28;20543;-48
2022/08/25 00:19:24;;;;;;;2.80;2.30;;;19.00;99.90;;;18.90;89.50;97328.31;5010256;28;20049;-51
2022/08/25 00:21:50;;;;;;;2.28;2.08;;;18.90;99.90;;;18.86;90.27;97326.81;5018413;28;20038;-49
2022/08/25 00:24:19;;;;;;;2.60;2.40;;;18.90;99.90;;;18.81;90.70;97318.28;5001789;28;20029;-49
2022/08/25 00:26:50;;;;;;;2.95;2.10;;;18.80;99.90;;;18.77;90.76;97317.63;5015881;28;20033;-51
2022/08/25 00:29:15;;;;;;;2.45;2.17;;;18.80;99.90;;;18.74;91.20;97322.34;5018212;28;20119;-50
2022/08/25 00:31:42;;;;;;;2.88;2.10;;;18.80;99.90;;;18.69;91.39;97320.84;5017734;28;20493;-51
2022/08/25 00:34:13;;;;;;;2.40;1.77;;;18.70;99.90;;;18.68;91.41;97323.63;5000925;28;20126;-49
2022/08/25 00:36:39;;;;;;;2.65;2.28;;;18.70;99.90;;;18.63;91.73;97323.97;5019054;28;20030;-49
2022/08/25 00:39:07;;;;;;;2.78;2.08;;;18.60;99.90;;;18.60;91.98;97323.31;5018459;28;20037;-47
2022/08/25 00:41:34;;;;;;;2.30;2.10;;;18.60;99.90;;;18.55;92.06;97320.13;5017575;28;20033;-50
2022/08/25 00:44:04;;;;;;;3.80;2.40;;;18.60;99.90;;;18.54;92.42;97321.06;5017921;28;20056;-51
2022/08/25 00:46:38;;;;;;;4.50;2.25;;;18.50;99.90;;;18.50;92.54;97320.44;5017943;28;20043;-50
2022/08/25 00:49:18;;;;;;;2.25;2.05;;;18.50;99.90;;;18.42;92.65;97325.47;5020540;28;20029;-48
2022/08/25 00:51:47;;;;;;;3.63;2.10;;;18.40;99.90;;;18.36;93.34;97321.41;5001179;28;20400;-49
2022/08/25 00:54:21;;;;;;;2.65;2.42;;;18.40;99.90;;;18.30;93.61;97328.03;5018134;28;20033;-48
2022/08/25 00:56:48;;;;;;;2.65;2.20;;;18.40;99.90;;;18.28;93.72;97329.09;5000070;28;20025;-48
2022/08/25 00:59:15;;;;;;;3.50;2.20;;;18.30;99.90;;;18.26;94.08;97323.00;5019960;28;20027;-51
2022/08/25 01:01:41;;;;;;;3.10;2.33;;;18.30;99.90;;;18.21;94.10;97320.66;5021726;28;20045;-48
2022/08/25 01:04:07;;;;;;;2.47;2.20;;;18.20;99.90;;;18.20;94.56;97318.94;5021857;28;20114;-49
2022/08/25 01:06:38;;;;;;;2.90;2.28;;;18.30;99.90;;;18.15;95.22;97318.41;5019246;28;20139;-47
2022/08/25 01:09:06;;;;;;;3.17;2.30;;;18.20;99.90;;;18.12;95.36;97311.47;5024282;28;20026;-48
2022/08/25 01:11:33;;;;;;;2.85;2.47;;;18.20;99.90;;;18.08;95.74;97312.63;5014272;28;20045;-49
2022/08/25 01:14:02;;;;;;;3.03;2.40;;;18.10;99.90;;;18.00;96.31;97301.66;5004952;28;20036;-49
2022/08/25 01:16:28;;;;;;;4.05;2.30;;;18.10;99.90;;;18.00;96.76;97304.31;5001730;28;20029;-51
2022/08/25 01:18:56;;;;;;;3.17;2.10;;;18.10;99.90;;;17.97;97.27;97306.34;5021052;28;20028;-49
2022/08/25 01:21:26;;;;;;;3.40;2.42;;;18.00;99.90;;;17.93;98.03;97301.22;5022052;28;20535;-47
2022/08/25 01:23:52;;;;;;;2.97;2.45;;;18.00;99.90;;;17.95;97.77;97302.94;5004166;28;20030;-48
2022/08/25 01:26:31;;;;;;;5.00;2.38;;;18.00;99.90;;;17.96;97.83;97305.47;5021965;28;20080;-48
2022/08/25 01:31:45;;;;;;;2.65;2.35;;;17.90;99.90;;;17.89;98.79;97307.72;5007285;28;20048;-51
2022/08/25 01:34:11;;;;;;;3.13;2.83;;;17.90;99.90;;;17.87;99.15;97306.09;5004250;28;20026;-50
2022/08/25 01:36:39;;;;;;;4.78;2.58;;;17.90;99.90;;;17.85;99.49;97310.66;5021318;28;20029;-48
2022/08/25 01:39:05;;;;;;;4.03;2.75;;;17.90;99.90;;;17.85;99.43;97314.19;5020447;28;20025;-49
2022/08/25 01:41:40;;;;;;;2.80;2.50;;;17.90;99.90;;;17.83;99.61;97301.91;5018535;28;20439;-48
2022/08/25 01:44:06;;;;;;;2.83;2.30;;;17.90;99.90;;;17.83;100.00;97305.41;5022331;28;20022;-50
2022/08/25 01:46:32;;;;;;;3.13;2.25;;;17.80;99.90;;;17.77;100.00;97302.34;5020744;28;20029;-48
2022/08/25 01:49:00;;;;;;;3.92;2.50;;;17.80;99.90;;;17.73;100.00;97305.19;5019245;28;20021;-50
2022/08/25 01:51:33;;;;;;;3.38;2.83;;;17.80;99.90;;;17.75;100.00;97311.28;5020748;28;20096;-50
2022/08/25 01:53:58;;;;;;;5.40;3.05;;;17.80;99.90;;;17.76;100.00;97309.47;5020396;28;20150;-48
2022/08/25 01:56:24;;;;;;;3.22;2.63;;;17.80;99.90;;;17.78;100.00;97306.69;5019946;28;20045;-50
2022/08/25 01:58:50;;;;;;;3.72;2.65;;;17.80;99.90;;;17.77;100.00;97305.84;5020430;28;20508;-50
2022/08/25 02:01:20;;;;;;;4.20;2.50;;;17.80;99.90;;;17.75;100.00;97303.28;5019020;28;20079;-49
2022/08/25 02:03:50;;;;;;;3.00;2.60;;;17.80;99.90;;;17.73;100.00;97302.53;4997281;23;20046;-50
2022/08/25 02:06:22;;;;;;;3.83;2.30;;;17.80;99.90;;;17.67;100.00;97302.94;4992802;28;20023;-46
2022/08/25 02:09:15;;;;;;;2.45;2.25;;;17.80;99.90;;;17.58;100.00;97306.22;4993083;28;20022;-48
2022/08/25 02:11:45;;;;;;;3.58;2.58;;;17.70;99.90;;;17.50;100.00;97316.56;4994300;28;20038;-49
2022/08/25 02:14:12;;;;;;;2.78;2.47;;;17.60;99.90;;;17.43;100.00;97321.44;4976256;28;20023;-47
2022/08/25 02:16:40;;;;;;;3.55;2.67;;;17.50;99.90;;;17.38;100.00;97320.88;4957708;28;20038;-45
2022/08/25 02:19:10;;;;;;;4.38;2.60;;;17.50;99.90;;;17.32;100.00;97319.47;4975027;28;22099;-48
2022/08/25 02:21:37;;;;;;;3.33;2.75;;;17.40;99.90;;;17.25;100.00;97319.97;4974397;28;20400;-45
2022/08/25 02:24:03;;;;;;;3.45;2.60;;;17.40;99.90;;;17.21;100.00;97315.78;4956104;28;20057;-47
2022/08/25 02:26:29;;;;;;;2.88;2.42;;;17.30;99.90;;;17.12;100.00;97315.44;4973967;28;20078;-46
2022/08/25 02:28:55;;;;;;;3.45;2.63;;;17.30;99.90;;;17.12;100.00;97322.56;4972596;28;20019;-47
2022/08/25 02:31:23;;;;;;;3.08;2.75;;;17.20;99.90;;;17.08;100.00;97321.91;4975642;28;20418;-50
2022/08/25 02:33:50;;;;;;;3.85;2.67;;;17.20;99.90;;;17.04;100.00;97312.41;4971307;28;20043;-47
2022/08/25 02:36:17;;;;;;;3.63;2.60;;;17.10;99.90;;;16.98;100.00;97313.66;4955316;28;20468;-46
2022/08/25 02:38:43;;;;;;;2.97;2.67;;;17.10;99.90;;;16.92;100.00;97307.88;4954068;28;20145;-45
2022/08/25 02:41:18;;;;;;;3.33;2.70;;;17.00;99.90;;;16.87;100.00;97310.84;4969987;28;20054;-45
2022/08/25 02:43:45;;;;;;;3.40;3.10;;;17.00;99.90;;;16.86;100.00;97314.44;4972810;28;20556;-46
2022/08/25 02:46:11;;;;;;;3.97;2.70;;;17.00;99.90;;;16.80;100.00;97305.00;4971869;28;20030;-46
2022/08/25 02:48:38;;;;;;;2.92;2.63;;;16.90;99.90;;;16.84;100.00;97321.69;4975535;28;20122;-45
2022/08/25 02:51:05;;;;;;;2.92;2.58;;;17.00;99.90;;;16.81;100.00;97305.84;4972992;28;20038;-46
2022/08/25 02:53:32;;;;;;;4.32;3.05;;;16.90;99.90;;;16.82;100.00;97306.72;4968971;28;20030;-46
2022/08/25 02:55:58;;;;;;;4.10;3.28;;;16.90;99.90;;;16.79;100.00;97308.59;4948798;28;20034;-47
2022/08/25 02:58:24;;;;;;;4.28;2.92;;;16.90;99.90;;;16.81;100.00;97308.50;4969478;28;20033;-46
2022/08/25 03:00:51;;;;;;;4.35;2.80;;;16.90;99.90;;;16.79;100.00;97313.09;4968667;28;20093;-46
2022/08/25 03:03:18;;;;;;;5.03;3.13;;;16.90;99.90;;;16.80;100.00;97306.81;4950470;28;20307;-46
2022/08/25 03:05:45;;;;;;;3.75;2.78;;;16.90;99.90;;;16.75;100.00;97306.25;4969930;28;20109;-47
2022/08/25 03:08:11;;;;;;;3.13;2.65;;;16.90;99.90;;;16.61;100.00;97286.66;4967408;28;20246;-50
2022/08/25 03:10:37;;;;;;;6.28;3.15;;;16.90;99.90;;;16.68;100.00;97287.16;4968211;28;20465;-47
2022/08/25 03:13:04;;;;;;;4.20;3.30;;;16.80;99.90;;;16.68;100.00;97300.47;4975190;28;20109;-47
2022/08/25 03:15:30;;;;;;;3.97;3.17;;;16.80;99.90;;;16.67;100.00;97298.75;4948884;28;20419;-48
2022/08/25 03:17:56;;;;;;;4.50;3.08;;;16.80;99.90;;;16.66;100.00;97301.53;4976790;28;20034;-48
2022/08/25 03:20:24;;;;;;;3.85;3.03;;;16.70;99.90;;;16.63;100.00;97285.72;4950111;28;20120;-49
2022/08/25 03:22:50;;;;;;;3.10;2.80;;;16.70;99.90;;;16.64;100.00;97293.63;4971089;28;20029;-49
2022/08/25 03:28:02;;;;;;;3.40;2.90;;;16.80;99.90;;;16.66;100.00;97305.03;4973626;28;20324;-47
2022/08/25 03:30:29;;;;;;;4.28;3.15;;;16.70;99.90;;;16.64;100.00;97308.75;4952343;28;20035;-48
2022/08/25 03:32:55;;;;;;;4.28;3.20;;;16.70;99.90;;;16.64;100.00;97312.25;4967764;28;20030;-49
2022/08/25 03:35:21;;;;;;;4.78;3.47;;;16.70;99.90;;;16.60;100.00;97303.63;4971582;28;20041;-48
2022/08/25 03:37:47;;;;;;;4.32;3.15;;;16.70;99.90;;;16.61;100.00;97299.97;4975458;28;20037;-46
2022/08/25 03:40:16;;;;;;;3.78;3.22;;;16.70;99.90;;;16.64;100.00;97306.94;4972786;28;20038;-46
2022/08/25 03:42:44;;;;;;;5.43;3.40;;;16.70;99.90;;;16.63;100.00;97305.22;4951399;28;20129;-47
2022/08/25 03:45:12;;;;;;;4.65;3.20;;;16.70;99.90;;;16.63;100.00;97291.06;4957877;28;20022;-47
2022/08/25 03:47:39;;;;;;;5.50;2.85;;;16.70;99.90;;;16.61;100.00;97296.47;4970050;28;20042;-49
2022/08/25 03:50:08;;;;;;;5.30;3.40;;;16.70;99.90;;;16.59;100.00;97299.22;4952384;28;20018;-48
2022/08/25 03:52:34;;;;;;;3.45;2.70;;;16.70;99.90;;;16.56;100.00;97290.56;4949232;28;20070;-46
2022/08/25 03:55:00;;;;;;;4.15;3.08;;;16.70;99.90;;;16.52;100.00;97284.59;4950988;28;20101;-49
2022/08/25 03:57:26;;;;;;;4.22;3.25;;;16.60;99.90;;;16.51;100.00;97288.22;4957543;28;20491;-47
2022/08/25 03:59:51;;;;;;;4.00;3.30;;;16.60;99.90;;;16.54;100.00;97288.00;4971598;28;20037;-49
2022/08/25 04:02:17;;;;;;;4.47;3.30;;;16.60;99.90;;;16.53;100.00;97291.63;4971097;28;20035;-48
2022/08/25 04:04:44;;;;;;;3.90;3.40;;;16.70;99.90;;;16.53;100.00;97286.31;4972872;28;20044;-46
2022/08/25 04:07:09;;;;;;;3.92;3.47;;;16.60;99.90;;;16.52;100.00;97276.59;4972192;28;20033;-50
2022/08/25 04:09:35;;;;;;;3.70;3.30;;;16.60;99.90;;;16.50;100.00;97286.50;4951794;28;20043;-46
2022/08/25 04:12:01;;;;;;;4.50;3.35;;;16.60;99.90;;;16.52;100.00;97286.41;4966532;28;20045;-46
2022/08/25 04:14:26;;;;;;;3.92;3.33;;;16.60;99.90;;;16.50;100.00;97275.00;4968989;28;20593;-48
2022/08/25 04:16:52;;;;;;;4.70;3.60;;;16.60;99.90;;;16.51;100.00;97285.56;4970612;28;20039;-46
2022/08/25 04:19:19;;;;;;;4.50;3.67;;;16.60;99.90;;;16.50;100.00;97286.50;4970760;28;20517;-47
2022/08/25 04:21:45;;;;;;;4.15;3.58;;;16.60;99.90;;;16.50;100.00;97289.16;4971470;28;20072;-49
2022/08/25 04:24:12;;;;;;;4.35;3.30;;;16.60;99.90;;;16.45;100.00;97293.91;4970011;28;20437;-49
2022/08/25 04:26:49;;;;;;;4.05;3.63;;;16.60;99.90;;;16.41;100.00;97281.75;4973862;28;20053;-47
2022/08/25 04:29:19;;;;;;;5.40;4.22;;;16.60;99.90;;;16.46;100.00;97300.13;4971916;28;20456;-46
2022/08/25 04:31:46;;;;;;;4.93;3.90;;;16.60;99.90;;;16.32;100.00;97275.19;4970512;28;20061;-46
2022/08/25 04:34:12;;;;;;;4.15;3.40;;;16.50;99.90;;;16.41;100.00;97281.75;4970782;28;20030;-47
2022/08/25 04:36:38;;;;;;;4.28;3.50;;;16.60;99.90;;;16.44;100.00;97286.00;4970816;28;20041;-48
2022/08/25 04:39:05;;;;;;;4.80;3.92;;;16.50;99.90;;;16.41;100.00;97287.91;4976161;28;20027;-47
2022/08/25 04:41:31;;;;;;;4.68;3.63;;;16.50;99.90;;;16.41;100.00;97287.06;4976744;28;20022;-47
2022/08/25 04:43:59;;;;;;;3.75;3.35;;;16.50;99.90;;;16.40;100.00;97296.00;4975174;28;20498;-46
2022/08/25 04:46:28;;;;;;;3.97;3.28;;;16.50;99.90;;;16.39;100.00;97287.16;4960668;28;20081;-45
2022/08/25 04:48:55;;;;;;;4.78;4.03;;;16.50;99.90;;;16.39;100.00;97284.50;4977328;28;20106;-50
2022/08/25 04:51:26;;;;;;;5.47;4.10;;;16.50;99.90;;;16.42;100.00;97291.47;4973674;28;20246;-47
2022/08/25 04:53:53;;;;;;;4.15;3.35;;;16.50;99.90;;;16.41;100.00;97285.25;4960013;28;20061;-45
2022/08/25 04:56:25;;;;;;;5.63;4.00;;;16.50;99.90;;;16.44;100.00;97296.66;4974601;28;20518;-46
2022/08/25 04:58:52;;;;;;;4.32;3.60;;;16.50;99.90;;;16.44;100.00;97292.22;4975573;28;20039;-46
2022/08/25 05:01:22;;;;;;;4.72;3.40;;;16.60;99.90;;;16.47;100.00;97307.13;4976701;28;20117;-46
2022/08/25 05:03:55;;;;;;;4.10;3.40;;;16.60;99.90;;;16.48;100.00;97309.69;4974386;28;20030;-46
2022/08/25 05:06:21;;;;;;;4.45;3.40;;;16.60;99.90;;;16.49;100.00;97306.09;4976572;28;20578;-49
2022/08/25 05:08:47;;;;;;;3.83;3.33;;;16.60;99.90;;;16.50;100.00;97309.59;4958972;28;20023;-45
2022/08/25 05:11:16;;;;;;;6.78;4.10;;;16.60;99.90;;;16.57;100.00;97308.28;4976649;28;20081;-46
2022/08/25 05:13:44;;;;;;;4.88;3.33;;;16.70;99.90;;;16.63;100.00;97312.34;4974122;28;20042;-46
2022/08/25 05:16:09;;;;;;;4.70;3.90;;;16.80;99.90;;;16.66;100.00;97302.38;4973930;28;20160;-45
2022/08/25 05:18:35;;;;;;;4.93;3.75;;;16.80;99.90;;;16.70;100.00;97295.88;4974696;28;20038;-45
2022/08/25 05:21:09;;;;;;;4.15;3.63;;;16.90;99.90;;;16.74;100.00;97294.75;4978074;28;20692;-48
2022/08/25 05:23:36;;;;;;;4.60;3.80;;;16.90;99.90;;;16.77;100.00;97283.03;4956946;28;20289;-46
2022/08/25 05:26:18;;;;;;;5.50;3.25;;;16.90;99.90;;;16.83;100.00;97287.13;4958333;28;20027;-49
2022/08/25 05:28:44;;;;;;;5.47;3.53;;;16.90;99.90;;;16.88;100.00;97291.22;4976820;28;20023;-45
2022/08/25 05:31:11;;;;;;;4.70;3.90;;;17.00;99.90;;;16.94;100.00;97292.63;4975692;28;20045;-45
2022/08/25 05:33:39;;;;;;;4.95;4.15;;;17.00;99.90;;;16.99;100.00;97287.88;4976792;28;20359;-46
2022/08/25 05:36:06;;;;;;;5.22;3.97;;;17.10;99.90;;;17.05;100.00;97290.16;4978446;28;20147;-47
2022/08/25 05:38:32;;;;;;;5.38;3.90;;;17.20;99.90;;;17.07;100.00;97282.06;4977410;28;20510;-47
2022/08/25 05:41:04;;;;;;;4.38;3.63;;;17.30;99.90;;;17.18;100.00;97290.19;4977718;28;20042;-47
2022/08/25 05:43:31;;;;;;;;;;;17.30;99.90;;;17.25;100.00;97285.34;4977349;28;20026;-47
2022/08/25 05:45:58;;;;;;;5.88;4.30;;;17.40;99.90;;;17.31;100.00;97283.09;4975375;28;19917;-46
2022/08/25 05:48:25;;;;;;;6.50;3.80;;;17.40;99.90;;;17.40;100.00;97283.47;4978497;28;20490;-46
2022/08/25 05:50:54;;;;;;;6.38;4.10;;;17.50;99.90;;;17.42;100.00;97277.06;4975573;28;20094;-46
2022/08/25 05:53:21;;;;;;;5.78;4.53;;;17.60;99.90;;;17.55;100.00;97280.63;4977727;28;20118;-45
2022/08/25 05:55:48;;;;;;;8.07;4.28;;;17.70;99.90;;;17.60;100.00;97272.31;4976726;28;20049;-46
2022/08/25 05:58:13;;;;;;;5.35;4.20;;;17.80;99.90;;;17.73;100.00;97278.53;4959842;28;20054;-45
2022/08/25 06:00:39;;;;;;;4.40;3.80;;;17.90;99.90;;;17.82;100.00;97273.50;4975745;28;20118;-45
2022/08/25 06:03:05;;;;;;;6.78;4.60;;;17.90;99.90;;;17.90;100.00;97271.22;4977449;28;20406;-46
2022/08/25 06:05:31;;;;;;;8.95;4.30;;;18.00;99.90;;;17.99;100.00;97270.56;4977932;28;20027;-48
2022/08/25 06:07:57;;;;;;;5.10;4.10;;;18.10;99.90;;;18.04;100.00;97263.13;4977178;28;20748;-49
2022/08/25 06:10:26;;;;;;;4.97;3.90;;;18.20;99.90;;;18.14;100.00;97271.31;4977262;28;20385;-48
2022/08/25 06:12:52;;;;;;;4.75;3.72;;;18.30;99.90;;;18.24;100.00;97271.56;4975868;28;20031;-49
2022/08/25 06:15:21;;;;;;;5.03;4.40;;;18.40;99.90;;;18.31;100.00;97283.50;4973859;28;20101;-49
2022/08/25 06:17:48;;;;;;;4.65;4.10;;;18.40;99.90;;;18.39;100.00;97289.16;4975412;28;20026;-48
2022/08/25 06:20:18;;;;;;;5.15;4.30;;;18.50;99.90;;;18.37;100.00;97272.38;4976499;28;20066;-50
2022/08/25 06:22:45;;;;;;;5.22;4.22;;;18.60;99.90;;;18.56;100.00;97287.13;4974237;28;20077;-49
2022/08/25 06:25:13;;;;;;;5.10;3.70;;;18.70;99.90;;;18.65;100.00;97287.31;4978027;28;20231;-49
2022/08/25 06:27:39;;;;;;;4.97;4.15;;;18.80;99.90;;;18.71;100.00;97286.00;4976969;28;20026;-50
2022/08/25 06:30:09;;;;;;;5.93;3.75;;;18.80;99.90;;;18.81;100.00;97283.53;4974946;28;20018;-48
2022/08/25 06:32:38;;;;;;;5.32;3.95;;;18.90;99.90;;;18.93;100.00;97289.84;4973155;28;20027;-49
2022/08/25 06:35:07;;;;;;;5.82;4.00;;;19.10;99.90;;;19.01;100.00;97279.44;4974385;28;20030;-48
2022/08/25 06:37:33;;;;;;;4.80;3.80;;;19.20;99.90;;;18.96;100.00;97258.41;4975539;28;20308;-48
2022/08/25 06:39:58;;;;;;;6.50;4.43;;;19.20;99.90;;;19.13;99.45;97277.69;4976722;28;20030;-47
2022/08/25 06:42:24;;;;;;;5.28;4.30;;;19.30;99.90;;;19.25;98.63;97285.66;4977230;28;20027;-45
2022/08/25 06:44:50;;;;;;;5.78;4.65;;;19.40;99.90;;;19.33;98.49;97277.06;4975257;28;20089;-47
2022/08/25 06:47:16;;;;;;;6.22;4.47;;;19.50;99.90;;;19.44;98.04;97285.16;4976193;28;20479;-47
2022/08/25 06:49:42;;;;;;;6.05;4.50;;;19.60;99.90;;;19.57;97.77;97284.22;4970978;28;20171;-47
2022/08/25 06:52:09;;;;;;;7.40;5.32;;;19.70;99.90;;;19.67;96.92;97279.91;4974718;28;20548;-46
2022/08/25 06:54:35;;;;;;;6.55;4.25;;;19.80;99.90;;;19.78;95.89;97282.63;4960167;28;20088;-46
2022/08/25 06:57:01;;;;;;;6.70;4.88;;;19.90;99.90;;;19.90;94.92;97277.31;4976347;28;20023;-45
2022/08/25 06:59:27;;;;;;;6.70;4.60;;;20.10;99.90;;;20.02;94.34;97279.88;4975572;28;20038;-45
2022/08/25 07:01:53;;;;;;;7.47;5.13;;;20.10;99.90;;;20.11;93.91;97288.19;4974273;28;20030;-46
2022/08/25 07:04:19;;;;;;;7.32;5.93;;;20.20;99.90;;;20.22;92.81;97274.81;4976268;28;20022;-46
2022/08/25 07:06:45;;;;;;;8.48;5.30;;;20.30;99.90;;;20.34;92.35;97273.84;4973648;28;20030;-45
2022/08/25 07:09:12;;;;;;;6.05;5.35;;;20.50;99.90;;;20.46;91.43;97269.38;4977106;28;20101;-45
2022/08/25 07:11:40;;;;;;;4.97;4.43;;;20.60;99.90;;;20.58;90.93;97265.72;4975624;28;20026;-47
2022/08/25 07:14:09;;;;;;;6.65;5.40;;;20.70;99.90;;;20.70;90.27;97263.06;4975771;28;20490;-46
2022/08/25 07:16:36;;;;;;;5.82;4.70;;;20.80;99.90;;;20.79;89.06;97265.81;4972503;28;20029;-45
2022/08/25 07:19:03;;;;;;;7.00;5.55;;;20.90;99.90;;;20.84;88.35;97257.44;4976182;28;20033;-48
2022/08/25 07:21:33;;;;;;;8.73;5.85;;;20.90;99.90;;;20.91;87.27;97265.84;4973329;28;20494;-46
2022/08/25 07:24:02;;;;;;;7.75;5.38;;;21.00;99.90;;;20.97;86.97;97262.63;4973021;28;20315;-45
2022/08/25 07:26:33;;;;;;;10.93;5.93;;;21.10;99.90;;;21.03;86.07;97263.97;4975094;28;20541;-50
2022/08/25 07:29:01;;;;;;;8.70;6.15;;;21.20;99.90;;;21.10;86.18;97266.03;4971420;28;20027;-45
2022/08/25 07:31:27;;;;;;;9.25;5.32;;;21.20;99.90;;;21.20;85.75;97255.41;4974741;28;20030;-46
2022/08/25 07:36:37;;;;;;;8.05;5.57;;;21.40;99.90;;;21.57;83.35;97243.44;4974858;28;20041;-45
2022/08/25 07:39:04;;;;;;;10.10;5.57;;;21.60;99.90;;;21.74;82.03;97248.25;4975892;28;20032;-49
2022/08/25 07:41:32;;;;;;;9.73;5.68;;;21.80;99.90;;;21.89;80.92;97263.06;4973303;28;20046;-45
2022/08/25 07:43:58;;;;;;;7.90;5.63;;;21.90;99.90;;;22.03;81.06;97250.28;4974186;28;20030;-44
2022/08/25 07:46:24;;;;;;;6.20;5.10;;;22.00;99.90;;;22.16;80.52;97258.13;4973425;28;20038;-48
2022/08/25 07:48:49;;;;;;;8.48;5.53;;;22.10;99.90;;;22.27;79.13;97261.63;4974662;28;20033;-48
2022/08/25 07:51:16;;;;;;;7.15;5.00;;;22.30;99.90;;;22.42;77.75;97263.97;4974129;28;20260;-45
2022/08/25 07:53:42;;;;;;;6.05;5.13;;;22.30;99.90;;;22.45;77.18;97252.91;4975578;28;20034;-47
2022/08/25 07:56:14;;;;;;;6.93;5.07;;;22.40;99.90;;;22.59;76.96;97270.53;4974106;28;20410;-45
2022/08/25 07:58:41;;;;;;;7.57;5.25;;;22.60;99.90;;;22.62;75.86;97260.38;4973720;28;20505;-46
2022/08/25 08:01:15;;;;;;;7.50;5.03;;;22.60;99.90;;;22.79;75.60;97266.06;4973998;28;20062;-47
2022/08/25 08:03:41;;;;;;;7.07;5.38;;;22.70;99.90;;;22.87;75.52;97264.41;5027141;23;20041;-47
2022/08/25 08:06:12;;;;;;;7.15;5.40;;;22.90;99.90;;;22.99;74.18;97264.31;5041620;28;20021;-47
2022/08/25 08:08:43;;;;;;;7.75;5.53;;;22.90;99.90;;;23.04;74.17;97260.25;5042532;28;20493;-50
2022/08/25 08:11:25;;;;;;;8.77;5.35;;;23.00;99.90;;;23.16;73.48;97262.81;5041459;28;20032;-51
2022/08/25 08:13:53;;;;;;;7.90;6.07;;;23.10;99.90;;;23.19;73.29;97258.00;5036618;28;20029;-51
2022/08/25 08:16:21;;;;;;;9.07;5.53;;;23.10;99.90;;;23.29;72.56;97257.16;5035349;28;20528;-50
2022/08/25 08:18:47;;;;;;;7.43;5.82;;;23.20;99.90;;;23.35;72.73;97265.53;5036050;28;20071;-50
2022/08/25 08:21:15;;;;;;;6.43;4.70;;;23.30;99.90;;;23.46;72.51;97259.16;5036123;28;20037;-53
2022/08/25 08:23:41;;;;;;;7.45;5.55;;;23.40;99.90;;;23.56;72.09;97256.47;5017825;28;20067;-49
2022/08/25 08:26:07;;;;;;;6.72;5.30;;;23.50;99.90;;;23.61;70.68;97251.50;5033511;28;20138;-48
2022/08/25 08:28:32;;;;;;;6.55;5.03;;;23.60;99.90;;;23.69;70.11;97254.38;5034771;28;20057;-50
2022/08/25 08:30:58;;;;;;;6.03;4.85;;;23.60;99.90;;;23.77;70.70;97253.63;5034312;28;20029;-47
2022/08/25 08:33:24;;;;;;;7.28;5.55;;;23.60;99.90;;;23.87;69.04;97253.66;5034913;28;20037;-51
2022/08/25 08:36:05;;;;;;;10.20;6.03;;;23.80;99.90;;;23.92;69.65;97260.31;5035855;28;20026;-47
2022/08/25 08:38:33;;;;;;;7.70;5.38;;;23.90;99.90;;;23.95;68.24;97254.63;5035109;28;20018;-47
2022/08/25 08:44:32;;;;;;;6.88;5.55;;;24.00;99.90;;;24.11;67.63;97245.13;5028151;28;20136;-48
2022/08/25 08:47:29;;;;;;;7.53;6.03;;;24.00;99.90;;;24.14;67.12;97252.91;5035352;28;20040;-48
2022/08/25 08:50:04;;;;;;;13.80;5.70;;;24.10;99.90;;;24.15;67.01;97247.34;5018008;28;20035;-47
2022/08/25 08:52:43;;;;;;;6.65;5.35;;;24.10;99.90;;;24.15;66.54;97241.13;5017710;28;20164;-48
2022/08/25 08:55:27;;;;;;;8.38;5.20;;;24.10;99.90;;;24.19;67.17;97239.84;5016810;28;20021;-48
2022/08/25 08:57:56;;;;;;;6.35;4.97;;;24.10;99.90;;;24.32;66.72;97239.53;5017973;28;20025;-50
2022/08/25 09:00:22;;;;;;;9.00;5.32;;;24.20;99.90;;;24.42;66.43;97245.72;5017352;28;20290;-47
2022/08/25 09:03:03;;;;;;;5.68;4.93;;;24.30;99.90;;;24.51;64.85;97242.13;5035255;28;20025;-50
2022/08/25 09:05:33;;;;;;;8.37;5.10;;;24.50;99.90;;;24.54;64.32;97227.56;5035572;28;20325;-47
2022/08/25 09:08:06;;;;;;;6.50;5.07;;;24.50;99.90;;;24.58;64.18;97235.22;5033905;28;20100;-48
2022/08/25 09:10:52;;;;;;;7.88;5.13;;;24.50;99.50;;;24.70;63.78;97233.16;5019160;28;20025;-49
2022/08/25 09:14:04;;;;;;;5.93;5.10;;;24.60;99.60;;;24.74;62.57;97239.94;5033357;28;20021;-48
2022/08/25 09:17:03;;;;;;;8.63;4.75;;;24.70;99.00;;;24.87;62.38;97233.34;5034434;28;20048;-47
2022/08/25 09:19:44;;;;;;;7.32;4.93;;;24.80;99.00;;;24.87;61.82;97222.56;5019276;28;20470;-49
2022/08/25 09:22:42;;;;;;;6.53;4.22;;;24.80;98.40;;;24.88;64.35;97232.38;5020797;28;20490;-50
2022/08/25 09:25:22;;;;;;;5.35;4.50;;;24.80;98.80;;;24.84;61.49;97229.13;5037267;28;20048;-48
2022/08/25 09:28:06;;;;;;;5.28;4.63;;;24.80;98.80;;;24.71;62.60;97220.50;5020554;28;20048;-48
2022/08/25 09:30:50;;;;;;;5.57;4.57;;;24.70;98.40;;;24.74;62.00;97229.16;5038772;28;20029;-47
2022/08/25 09:33:21;;;;;;;5.68;4.57;;;24.70;98.50;;;24.77;62.27;97219.94;5020229;28;20037;-48
2022/08/25 09:35:50;;;;;;;5.15;4.10;;;24.70;98.60;;;24.79;62.66;97217.94;5038510;28;20045;-50
2022/08/25 09:38:16;;;;;;;6.18;5.03;;;24.70;98.50;;;24.81;62.91;97221.31;5036744;28;20076;-47
2022/08/25 09:40:47;;;;;;;5.57;4.50;;;24.70;98.60;;;24.90;62.04;97206.09;5037590;28;20033;-48
2022/08/25 09:43:35;;;;;;;6.43;5.15;;;24.80;98.40;;;24.95;63.33;97212.72;5018266;28;20057;-48
2022/08/25 09:46:27;;;;;;;5.07;4.32;;;24.90;98.50;;;25.13;60.00;97217.31;5020304;28;20320;-47
2022/08/25 09:49:09;;;;;;;6.15;4.78;;;25.00;97.50;;;25.26;59.25;97211.56;5038123;28;20040;-49
2022/08/25 09:51:40;;;;;;;7.20;5.03;;;25.20;97.30;;;25.21;59.17;97208.44;5036004;28;20493;-47
2022/08/25 09:54:11;;;;;;;5.57;4.63;;;25.20;96.70;;;25.21;59.02;97193.06;5035923;28;20037;-50
2022/08/25 09:56:57;;;;;;;7.93;5.38;;;25.20;96.90;;;25.35;59.55;97197.13;5035959;28;20374;-48
2022/08/25 09:59:35;;;;;;;5.63;4.63;;;25.30;97.10;;;25.47;58.76;97195.06;5018368;28;20068;-52
2022/08/25 10:02:19;;;;;;;6.30;4.57;;;25.40;96.80;;;25.60;57.45;97197.34;5036286;28;20486;-47
2022/08/25 10:04:45;;;;;;;5.18;4.35;;;25.50;96.20;;;25.60;59.27;97206.28;5022436;28;20032;-47
2022/08/25 10:07:28;;;;;;;6.88;5.15;;;25.50;96.60;;;25.69;58.24;97197.25;5037292;28;20283;-49
2022/08/25 10:10:06;;;;;;;6.32;4.60;;;25.60;96.30;;;25.74;58.14;97204.06;5037774;28;20040;-47
2022/08/25 10:12:39;;;;;;;8.07;5.50;;;25.60;96.40;;;25.55;58.32;97197.81;5036681;28;20111;-47
2022/08/25 10:15:17;;;;;;;8.60;5.10;;;25.50;96.10;;;25.34;59.98;97192.75;5036574;28;20048;-49
2022/08/25 10:17:43;;;;;;;7.25;4.60;;;25.30;96.50;;;25.27;60.03;97186.28;5038358;28;20619;-51
2022/08/25 10:20:08;;;;;;;9.30;4.40;;;25.20;96.60;;;25.27;59.76;97187.13;5036083;28;20475;-48
2022/08/25 10:22:36;;;;;;;7.18;5.20;;;25.20;96.60;;;25.27;59.46;97184.41;5039091;28;20032;-48
2022/08/25 10:25:09;;;;;;;5.60;5.03;;;25.20;96.50;;;25.20;59.85;97175.22;5035701;28;20504;-47
2022/08/25 10:28:25;;;;;;;5.32;4.82;;;25.20;96.40;;;25.22;59.84;97183.16;5036687;28;20017;-47
2022/08/25 10:31:05;;;;;;;4.93;4.43;;;25.10;96.50;;;25.18;60.36;97174.53;5025838;28;20432;-50
2022/08/25 10:34:07;;;;;;;5.55;4.70;;;25.10;96.30;;;25.39;58.14;97174.22;5036622;28;20116;-51
2022/08/25 10:36:57;;;;;;;5.22;4.32;;;25.30;95.90;;;25.62;57.54;97166.47;5021599;28;20037;-52
2022/08/25 10:40:04;;;;;;;6.00;5.03;;;25.50;95.60;;;25.95;56.32;97168.59;5035999;28;20033;-48